Time;durP1;ratioP1;P1;durP2;ratioP2;P2;SDS_P1;SDS_P2;PMS_P1;PMS_P2;Temp;Humidity;BMP_temperature;BMP_pressure;BME280_temperature;BME280_humidity;BME280_pressure;Samples;Min_cycle;Max_cycle;Signal;HPM_P1;HPM_P2
2022/02/19 00:00:28;;;;;;;;;;;;;;;5.39;68.50;99214.56;4928197;29;19949;-85
2022/02/19 00:02:54;;;;;;;;;;;;;;;5.48;68.86;99200.25;4928024;29;20287;-87
2022/02/19 00:05:19;;;;;;;;;;;;;;;5.44;68.79;99209.13;4928773;29;20737;-85
2022/02/19 00:07:44;;;;;;;;;;;;;;;5.44;69.84;99217.00;4928356;29;19933;-90
2022/02/19 00:10:10;;;;;;;;;;;;;;;5.40;70.10;99221.50;4910030;29;20009;-89
2022/02/19 00:12:36;;;;;;;;;;;;;;;5.43;69.63;99220.56;4930919;29;20542;-93
2022/02/19 00:15:01;;;;;;;;;;;;;;;5.37;69.62;99232.09;4933330;29;19930;-87
2022/02/19 00:17:28;;;;;;;;;;;;;;;5.38;69.11;99230.38;4930564;29;20021;-94
2022/02/19 00:19:53;;;;;;;;;;;;;;;5.43;68.65;99231.06;4934304;29;19933;-87
2022/02/19 00:22:19;;;;;;;;;;;;;;;5.41;68.80;99252.13;4913283;29;19930;-89
2022/02/19 00:24:44;;;;;;;;;;;;;;;5.40;69.08;99260.06;4914521;29;19926;-90
2022/02/19 00:27:10;;;;;;;;;;;;;;;5.48;69.17;99267.72;4932095;29;19923;-94
2022/02/19 00:29:35;;;;;;;;;;;;;;;5.51;68.83;99268.47;4929890;29;20247;-84
2022/02/19 00:32:01;;;;;;;;;;;;;;;5.45;68.46;99268.66;4930406;29;19923;-88
2022/02/19 00:34:26;;;;;;;;;;;;;;;5.48;68.68;99279.09;4915528;29;20410;-94
2022/02/19 00:36:51;;;;;;;;;;;;;;;5.53;68.48;99284.22;4930433;29;19929;-89
2022/02/19 00:39:16;;;;;;;;;;;;;;;5.50;68.87;99277.25;4930308;29;19994;-89
2022/02/19 00:41:42;;;;;;;;;;;;;;;5.49;68.85;99286.06;4927107;29;19923;-85
2022/02/19 00:44:07;;;;;;;;;;;;;;;5.45;68.56;99280.03;4929872;29;20002;-86
2022/02/19 00:46:34;;;;;;;;;;;;;;;5.51;68.32;99276.38;4928654;29;19923;-90
2022/02/19 00:49:01;;;;;;;;;;;;;;;5.51;68.32;99284.25;4931563;29;20532;-85
2022/02/19 00:51:27;;;;;;;;;;;;;;;5.57;68.79;99294.59;4929194;29;20497;-85
2022/02/19 00:53:52;;;;;;;;;;;;;;;5.74;70.05;99296.69;4931135;29;19977;-85
2022/02/19 00:56:17;;;;;;;;;;;;;;;5.88;71.64;99298.88;4933146;29;19927;-85
2022/02/19 00:58:43;;;;;;;;;;;;;;;5.84;73.42;99297.28;4928846;29;19927;-87
2022/02/19 01:01:08;;;;;;;;;;;;;;;5.75;75.00;99297.56;4910581;29;20381;-89
2022/02/19 01:03:33;;;;;;;;;;;;;;;5.74;76.56;99303.72;4928213;29;20294;-84
2022/02/19 01:05:59;;;;;;;;;;;;;;;5.64;77.49;99308.41;4914343;29;21094;-89
2022/02/19 01:08:24;;;;;;;;;;;;;;;5.62;78.53;99315.47;4913373;29;20179;-85
2022/02/19 01:10:49;;;;;;;;;;;;;;;5.58;78.97;99325.19;4913106;29;19993;-84
2022/02/19 01:13:15;;;;;;;;;;;;;;;5.50;79.82;99335.06;4930300;29;19992;-85
2022/02/19 01:15:42;;;;;;;;;;;;;;;5.46;81.15;99328.22;4912271;29;20017;-89
2022/02/19 01:18:07;;;;;;;;;;;;;;;5.53;83.05;99329.72;4913344;29;20327;-87
2022/02/19 01:20:33;;;;;;;;;;;;;;;5.53;85.62;99329.72;4911376;29;19927;-86
2022/02/19 01:22:58;;;;;;;;;;;;;;;5.66;88.34;99327.59;4913850;29;19927;-85
2022/02/19 01:25:23;;;;;;;;;;;;;;;5.93;91.70;99338.19;4929666;29;19922;-85
2022/02/19 01:27:48;;;;;;;;;;;;;;;6.07;94.40;99335.19;4915857;29;19926;-85
2022/02/19 01:30:14;;;;;;;;;;;;;;;6.23;97.11;99335.53;4913509;29;20005;-85
2022/02/19 01:32:39;;;;;;;;;;;;;;;6.32;99.32;99327.34;4913448;29;19985;-86
2022/02/19 01:35:04;;;;;;;;;;;;;;;6.48;100.00;99325.06;4932814;29;19931;-89
2022/02/19 04:31:03;;;;;;;;;;;;;;;2.59;87.83;99578.16;4919480;28;19950;-81
2022/02/19 04:33:28;;;;;;;;;;;;;;;2.52;87.58;99573.88;4947866;28;19926;-83
2022/02/19 04:35:53;;;;;;;;;;;;;;;2.38;87.48;99579.31;4936287;29;20339;-79
2022/02/19 04:38:24;;;;;;;;;;;;;;;2.25;86.93;99590.78;4934966;29;20333;-80
2022/02/19 04:40:50;;;;;;;;;;;;;;;2.27;87.09;99591.66;4934875;29;19958;-79
2022/02/19 04:43:15;;;;;;;;;;;;;;;2.21;86.93;99589.09;4934974;29;20408;-78
2022/02/19 04:45:40;;;;;;;;;;;;;;;2.06;86.58;99588.41;4934762;28;19926;-79
2022/02/19 04:48:05;;;;;;;;;;;;;;;1.94;86.10;99602.44;4935007;29;19982;-82
2022/02/19 04:50:30;;;;;;;;;;;;;;;1.82;85.75;99605.22;4950215;29;19925;-80
2022/02/19 04:52:56;;;;;;;;;;;;;;;1.84;85.57;99610.41;4936387;29;20382;-81
2022/02/19 04:55:21;;;;;;;;;;;;;;;1.77;85.44;99614.81;4931799;29;19919;-80
2022/02/19 04:57:46;;;;;;;;;;;;;;;1.60;84.89;99613.25;4934073;29;19929;-80
2022/02/19 05:00:13;;;;;;;;;;;;;;;1.57;85.60;99612.41;4954634;28;20362;-78
2022/02/19 05:02:38;;;;;;;;;;;;;;;1.51;85.45;99623.75;4952964;28;19919;-78
2022/02/19 05:05:04;;;;;;;;;;;;;;;1.56;85.25;99624.59;4936183;29;19929;-78
2022/02/19 05:07:29;;;;;;;;;;;;;;;1.39;84.89;99635.19;4952077;29;20266;-85
2022/02/19 05:09:54;;;;;;;;;;;;;;;1.38;84.63;99636.06;4935950;29;19929;-78
2022/02/19 05:12:20;;;;;;;;;;;;;;;1.29;84.32;99641.34;4950285;28;20306;-79
2022/02/19 05:14:45;;;;;;;;;;;;;;;1.23;84.35;99642.25;4953613;28;19922;-80
2022/02/19 05:17:10;;;;;;;;;;;;;;;1.26;84.86;99641.34;4935750;29;20093;-78
2022/02/19 05:19:36;;;;;;;;;;;;;;;1.53;87.14;99640.31;4935390;29;19977;-79
2022/02/19 05:22:01;;;;;;;;;;;;;;;1.89;91.37;99634.75;4935431;29;19926;-80
2022/02/19 05:24:26;;;;;;;;;;;;;;;2.31;94.86;99637.78;4935440;29;19923;-80
2022/02/19 05:26:51;;;;;;;;;;;;;;;2.53;97.00;99647.09;4950525;29;19988;-79
2022/02/19 05:29:16;;;;;;;;;;;;;;;2.70;98.86;99646.88;4953102;28;19923;-80
2022/02/19 05:31:42;;;;;;;;;;;;;;;2.77;100.00;99657.28;4951096;28;19922;-79
2022/02/19 05:34:07;;;;;;;;;;;;;;;2.80;100.00;99652.88;4934810;29;19929;-85
2022/02/19 05:36:32;;;;;;;;;;;;;;;2.81;100.00;99646.75;4952181;29;19992;-84
2022/02/19 05:39:01;;;;;;;;;;;;;;;2.89;100.00;99650.13;4933251;29;19918;-79
2022/02/19 05:41:26;;;;;;;;;;;;;;;2.87;100.00;99640.56;4950494;28;19961;-78
2022/02/19 05:43:52;;;;;;;;;;;;;;;2.93;100.00;99653.56;4951846;29;19949;-79
2022/02/19 05:46:17;;;;;;;;;;;;;;;2.97;100.00;99660.50;4949414;29;19922;-78
2022/02/19 05:48:42;;;;;;;;;;;;;;;2.98;100.00;99656.13;4949033;29;19929;-78
2022/02/19 05:51:07;;;;;;;;;;;;;;;3.06;100.00;99657.75;4934539;29;20298;-78
2022/02/19 05:53:32;;;;;;;;;;;;;;;3.09;100.00;99664.69;4952009;28;19941;-78
2022/02/19 05:55:58;;;;;;;;;;;;;;;3.02;100.00;99671.75;4951326;28;19973;-78
2022/02/19 05:58:23;;;;;;;;;;;;;;;3.00;100.00;99670.94;4950060;29;19918;-79
2022/02/19 06:00:48;;;;;;;;;;;;;;;3.00;100.00;99678.78;4950718;28;19929;-78
2022/02/19 06:03:14;;;;;;;;;;;;;;;3.06;100.00;99675.19;4950710;29;19989;-78
2022/02/19 09:01:08;;;;;;;;;;;;;;;3.73;77.85;99932.75;4922264;29;19941;-79
2022/02/19 09:03:34;;;;;;;;;;;;;;;3.72;78.27;99927.53;4914328;29;20282;-84
2022/02/19 09:06:00;;;;;;;;;;;;;;;3.77;78.77;99933.59;4918509;29;19925;-81
2022/02/19 09:08:25;;;;;;;;;;;;;;;3.76;78.51;99940.59;4920864;29;19927;-81
2022/02/19 09:10:50;;;;;;;;;;;;;;;3.76;78.08;99940.59;4923730;29;19923;-78
2022/02/19 09:13:15;;;;;;;;;;;;;;;3.77;77.43;99941.47;4923298;29;20495;-81
2022/02/19 09:15:42;;;;;;;;;;;;;;;3.79;76.71;99937.94;4922015;29;20390;-81
2022/02/19 09:18:07;;;;;;;;;;;;;;;3.77;76.32;99939.72;4922711;29;19978;-86
2022/02/19 09:20:33;;;;;;;;;;;;;;;3.79;76.41;99942.31;4911045;29;20017;-79
2022/02/19 09:22:58;;;;;;;;;;;;;;;3.77;76.17;99944.09;4924723;29;19970;-84
2022/02/19 09:25:23;;;;;;;;;;;;;;;3.79;76.20;99953.66;4921409;29;19957;-78
2022/02/19 09:27:49;;;;;;;;;;;;;;;3.84;76.48;99948.34;4919502;29;19927;-80
2022/02/19 09:30:14;;;;;;;;;;;;;;;3.82;76.17;99948.38;4922479;29;19927;-79
2022/02/19 09:32:40;;;;;;;;;;;;;;;3.81;75.95;99944.03;4921617;29;19919;-79
2022/02/19 09:35:06;;;;;;;;;;;;;;;3.80;75.92;99954.53;4920360;29;19930;-79
2022/02/19 09:37:32;;;;;;;;;;;;;;;3.81;75.62;99959.78;4920478;29;19958;-79
2022/02/19 09:39:57;;;;;;;;;;;;;;;3.85;75.47;99957.09;4919594;29;19923;-81
2022/02/19 09:42:23;;;;;;;;;;;;;;;3.87;75.35;99958.81;4910874;29;20374;-83
2022/02/19 09:44:48;;;;;;;;;;;;;;;3.88;75.20;99959.66;4908623;29;19927;-84
2022/02/19 09:47:17;;;;;;;;;;;;;;;3.88;74.77;99951.78;4916620;29;19934;-82
2022/02/19 09:49:43;;;;;;;;;;;;;;;3.93;74.94;99950.00;4919817;29;19929;-82
2022/02/19 09:52:08;;;;;;;;;;;;;;;3.91;74.59;99946.50;4918828;29;20434;-83
2022/02/19 09:54:33;;;;;;;;;;;;;;;3.90;74.53;99945.66;4918742;29;19919;-81
2022/02/19 09:56:59;;;;;;;;;;;;;;;3.90;74.30;99953.53;4918735;29;20488;-81
2022/02/19 09:59:24;;;;;;;;;;;;;;;3.91;73.86;99946.50;4899930;29;19927;-83
2022/02/19 10:02:00;;;;;;;;;;;;;;;3.91;73.78;99954.38;4902487;29;20026;-80
2022/02/19 10:04:25;;;;;;;;;;;;;;;3.91;73.70;99957.00;4914471;29;19935;-79
2022/02/19 10:06:52;;;;;;;;;;;;;;;3.97;73.79;99956.94;4901169;29;19928;-82
2022/02/19 10:09:18;;;;;;;;;;;;;;;3.94;73.41;99955.22;4902086;29;19935;-79
2022/02/19 10:11:47;;;;;;;;;;;;;;;3.98;73.65;99956.91;4918160;29;19923;-80
2022/02/19 10:14:18;;;;;;;;;;;;;;;3.99;73.64;99961.28;4895448;29;20492;-80
2022/02/19 10:16:44;;;;;;;;;;;;;;;3.97;73.59;99970.03;4908550;29;19930;-81
2022/02/19 10:19:09;;;;;;;;;;;;;;;4.00;73.50;99963.03;4917164;29;19931;-81
2022/02/19 10:21:34;;;;;;;;;;;;;;;4.02;73.25;99968.25;4899770;29;19923;-88
2022/02/19 10:23:59;;;;;;;;;;;;;;;4.06;73.32;99964.69;4913921;29;20006;-80
2022/02/19 10:26:25;;;;;;;;;;;;;;;4.05;73.23;99970.81;4916590;29;20607;-82
2022/02/19 10:29:09;;;;;;;;;;;;;;;4.08;73.37;99977.78;4916494;29;19945;-80
2022/02/19 10:31:35;;;;;;;;;;;;;;;4.07;73.20;99969.03;4894891;29;19949;-80
2022/02/19 10:34:13;;;;;;;;;;;;;;;4.11;72.99;99968.09;4891115;29;20476;-80
2022/02/19 10:36:42;;;;;;;;;;;;;;;4.08;73.00;99970.75;4915899;29;19927;-80
2022/02/19 10:39:10;;;;;;;;;;;;;;;4.10;72.87;99962.88;4898764;29;19927;-79
2022/02/19 10:41:37;;;;;;;;;;;;;;;4.16;73.02;99954.94;4899254;29;19979;-82
2022/02/19 10:44:22;;;;;;;;;;;;;;;4.18;73.16;99964.53;4898252;29;20374;-82
2022/02/19 10:46:49;;;;;;;;;;;;;;;4.18;72.70;99956.66;4918297;29;19974;-80
2022/02/19 10:49:14;;;;;;;;;;;;;;;4.21;72.59;99954.88;4899445;29;19931;-80
2022/02/19 10:51:43;;;;;;;;;;;;;;;4.24;72.72;99952.19;4900463;29;20414;-79
2022/02/19 10:54:09;;;;;;;;;;;;;;;4.23;72.45;99953.06;4900521;29;19919;-79
2022/02/19 10:56:35;;;;;;;;;;;;;;;4.22;72.48;99954.84;4899786;29;19919;-81
2022/02/19 10:59:08;;;;;;;;;;;;;;;4.24;72.07;99949.56;4897188;29;19927;-80
2022/02/19 11:01:53;;;;;;;;;;;;;;;4.29;71.68;99950.38;4916199;29;19954;-80
2022/02/19 11:04:21;;;;;;;;;;;;;;;4.28;71.24;99944.25;4898383;29;19923;-81
2022/02/19 11:06:47;;;;;;;;;;;;;;;4.31;71.16;99943.38;4915851;29;19978;-80
2022/02/19 11:09:13;;;;;;;;;;;;;;;4.31;71.11;99932.88;4899695;29;19942;-80
2022/02/19 11:11:39;;;;;;;;;;;;;;;4.34;70.76;99943.28;4896426;29;19927;-85
2022/02/19 11:14:05;;;;;;;;;;;;;;;4.34;70.94;99931.06;4915354;29;19929;-80
2022/02/19 11:16:32;;;;;;;;;;;;;;;4.33;70.67;99931.09;4901334;29;20434;-79
2022/02/19 11:18:57;;;;;;;;;;;;;;;4.36;70.49;99937.16;4901176;29;19923;-79
2022/02/19 11:21:23;;;;;;;;;;;;;;;4.34;70.22;99927.56;4901727;29;19926;-81
2022/02/19 11:23:49;;;;;;;;;;;;;;;4.36;69.72;99928.41;4917787;29;20339;-80
2022/02/19 11:26:17;;;;;;;;;;;;;;;4.44;69.80;99930.94;4894524;29;19933;-80
2022/02/19 11:28:42;;;;;;;;;;;;;;;4.43;69.54;99921.31;4913258;29;19994;-79
2022/02/19 11:31:08;;;;;;;;;;;;;;;4.50;69.06;99918.56;4914888;29;20370;-81
2022/02/19 11:33:36;;;;;;;;;;;;;;;4.49;68.73;99915.97;4899437;29;19982;-81
2022/02/19 11:36:03;;;;;;;;;;;;;;;4.47;68.86;99929.13;4915934;29;19934;-79
2022/02/19 11:38:35;;;;;;;;;;;;;;;4.52;68.99;99910.69;4918193;29;20400;-80
2022/02/19 11:41:01;;;;;;;;;;;;;;;4.49;69.08;99905.47;4915825;29;19923;-83
2022/02/19 11:43:34;;;;;;;;;;;;;;;4.48;69.11;99908.97;4916543;29;19923;-80
2022/02/19 11:46:01;;;;;;;;;;;;;;;4.49;69.33;99905.47;4916798;29;19924;-80
2022/02/19 11:48:27;;;;;;;;;;;;;;;4.54;69.34;99893.13;4917004;29;19949;-80
2022/02/19 11:51:08;;;;;;;;;;;;;;;4.52;69.07;99885.28;4909633;29;19958;-79
2022/02/19 11:53:34;;;;;;;;;;;;;;;4.56;69.33;99883.47;4900531;29;19927;-82
2022/02/19 11:56:00;;;;;;;;;;;;;;;4.55;68.85;99880.00;4920608;29;20424;-86
2022/02/19 11:58:28;;;;;;;;;;;;;;;5.74;70.49;99864.56;4903184;29;19923;-83
2022/02/19 12:00:55;;;;;;;;;;;;;;;5.11;70.82;99858.00;4917601;29;19926;-83
2022/02/19 12:03:20;;;;;;;;;;;;;;;4.90;70.26;99860.13;4919504;29;19927;-84
2022/02/19 12:06:04;;;;;;;;;;;;;;;4.86;70.29;99858.44;4920745;29;19922;-80
2022/02/19 12:08:50;;;;;;;;;;;;;;;4.84;69.94;99865.50;4920194;29;20008;-80
2022/02/19 12:11:17;;;;;;;;;;;;;;;4.75;69.70;99849.91;4916401;29;20417;-85
2022/02/19 12:13:45;;;;;;;;;;;;;;;4.73;69.68;99846.44;4917672;29;19962;-87
2022/02/19 12:16:31;;;;;;;;;;;;;;;4.73;69.34;99835.94;4917456;29;19981;-82
2022/02/19 12:18:59;;;;;;;;;;;;;;;4.84;68.81;99828.72;4921427;29;20436;-80
2022/02/19 12:21:31;;;;;;;;;;;;;;;4.82;68.57;99830.53;4918630;29;19969;-80
2022/02/19 12:24:10;;;;;;;;;;;;;;;4.86;68.41;99820.84;4919969;29;19927;-85
2022/02/19 12:26:54;;;;;;;;;;;;;;;4.83;68.10;99816.50;4918439;29;19923;-80
2022/02/19 12:29:26;;;;;;;;;;;;;;;4.82;68.03;99813.91;4915332;29;19927;-84
2022/02/19 12:32:03;;;;;;;;;;;;;;;4.82;67.84;99793.78;4919106;29;19927;-79
2022/02/19 12:34:30;;;;;;;;;;;;;;;4.83;67.80;99810.38;4918297;29;19923;-80
2022/02/19 12:36:57;;;;;;;;;;;;;;;4.82;67.98;99803.38;4919982;29;20483;-81
2022/02/19 12:39:23;;;;;;;;;;;;;;;4.84;67.86;99804.25;4917052;29;19919;-85
2022/02/19 12:41:58;;;;;;;;;;;;;;;4.84;67.88;99802.47;4917537;29;19979;-80
2022/02/19 12:44:24;;;;;;;;;;;;;;;4.85;67.83;99806.84;4911524;29;19934;-81
2022/02/19 12:46:52;;;;;;;;;;;;;;;4.86;67.59;99795.44;4900309;29;20010;-80
2022/02/19 12:49:19;;;;;;;;;;;;;;;4.96;67.84;99805.75;4918062;29;20285;-81
2022/02/19 12:51:52;;;;;;;;;;;;;;;5.28;68.52;99805.09;4907690;29;19927;-82
2022/02/19 12:54:33;;;;;;;;;;;;;;;5.38;70.18;99796.16;4913521;29;19935;-83
2022/02/19 12:56:59;;;;;;;;;;;;;;;5.43;72.63;99791.66;4916663;29;20406;-80
2022/02/19 12:59:27;;;;;;;;;;;;;;;5.43;73.71;99793.41;4918059;29;19961;-83
2022/02/19 13:01:57;;;;;;;;;;;;;;;5.39;75.04;99794.38;4916346;29;19923;-83
2022/02/19 13:04:30;;;;;;;;;;;;;;;5.28;76.35;99800.72;4917785;29;19923;-81
2022/02/19 13:06:55;;;;;;;;;;;;;;;5.17;77.57;99799.22;4915174;29;19923;-81
2022/02/19 13:09:21;;;;;;;;;;;;;;;5.03;78.89;99799.50;4916899;29;19923;-80
2022/02/19 13:11:49;;;;;;;;;;;;;;;5.02;80.13;99800.41;4901052;29;19959;-80
2022/02/19 13:14:14;;;;;;;;;;;;;;;5.13;81.96;99800.19;4914827;29;19927;-82
2022/02/19 13:16:39;;;;;;;;;;;;;;;5.18;84.12;99799.19;4917356;29;19919;-83
2022/02/19 13:19:05;;;;;;;;;;;;;;;5.33;87.42;99800.63;4897847;29;19923;-81
2022/02/19 13:21:30;;;;;;;;;;;;;;;5.61;91.13;99806.13;4900898;29;19966;-80
2022/02/19 13:23:58;;;;;;;;;;;;;;;5.77;94.43;99806.66;4897530;29;19919;-80
2022/02/19 13:26:28;;;;;;;;;;;;;;;5.95;97.29;99799.25;4916517;29;19927;-81
2022/02/19 13:28:55;;;;;;;;;;;;;;;6.06;99.39;99802.50;4918539;29;20499;-81
2022/02/19 13:31:21;;;;;;;;;;;;;;;6.17;100.00;99811.03;4920133;29;20491;-84
2022/02/19 13:33:46;;;;;;;;;;;;;;;6.20;100.00;99804.81;4912327;29;19918;-82
2022/02/19 13:36:13;;;;;;;;;;;;;;;6.30;100.00;99815.97;4901300;29;19938;-80
2022/02/19 13:38:39;;;;;;;;;;;;;;;6.38;100.00;99792.94;4899541;29;19930;-81
2022/02/19 13:41:04;;;;;;;;;;;;;;;6.47;100.00;99795.34;4898948;29;19922;-80
2022/02/19 13:43:29;;;;;;;;;;;;;;;6.47;100.00;99794.50;4910356;29;19930;-80
2022/02/19 13:45:54;;;;;;;;;;;;;;;6.57;100.00;99788.09;4915422;29;19990;-83
2022/02/19 13:48:21;;;;;;;;;;;;;;;6.62;100.00;99790.59;4916420;29;19994;-81
2022/02/19 13:50:56;;;;;;;;;;;;;;;6.65;100.00;99783.50;4908733;29;19923;-80
2022/02/19 13:53:24;;;;;;;;;;;;;;;6.72;100.00;99782.41;4915578;29;20492;-81
2022/02/19 13:55:49;;;;;;;;;;;;;;;6.69;100.00;99776.38;4894653;29;19974;-81
2022/02/19 13:58:16;;;;;;;;;;;;;;;6.77;100.00;99776.16;4896918;29;19966;-80
2022/02/19 14:00:42;;;;;;;;;;;;;;;6.82;100.00;99777.75;4904108;29;19989;-83
2022/02/19 14:03:07;;;;;;;;;;;;;;;6.89;100.00;99774.06;4912259;29;19950;-81
2022/02/19 14:05:42;;;;;;;;;;;;;;;6.93;100.00;99780.09;4911545;29;20295;-81
2022/02/19 14:08:07;;;;;;;;;;;;;;;6.98;100.00;99782.59;4914827;29;19923;-81
2022/02/19 14:10:33;;;;;;;;;;;;;;;6.97;100.00;99771.19;4898844;29;19919;-82
2022/02/19 14:13:09;;;;;;;;;;;;;;;7.02;100.00;99766.66;4905347;29;20074;-84
2022/02/19 14:15:39;;;;;;;;;;;;;;;7.07;100.00;99772.66;4897528;29;20414;-83
2022/02/19 14:18:10;;;;;;;;;;;;;;;7.09;100.00;99770.84;4908795;29;20453;-83
2022/02/19 14:20:37;;;;;;;;;;;;;;;7.06;100.00;99755.13;4914184;29;20379;-81
2022/02/19 14:23:11;;;;;;;;;;;;;;;7.15;100.00;99754.00;4896775;29;19994;-81
2022/02/19 14:25:39;;;;;;;;;;;;;;;7.02;100.00;99761.41;4912133;29;19931;-85
2022/02/19 14:28:06;;;;;;;;;;;;;;;5.21;100.00;99764.97;4895939;29;19923;-84
2022/02/19 14:30:37;;;;;;;;;;;;;;;4.30;96.11;99778.97;4904086;29;19976;-81
2022/02/19 14:33:06;;;;;;;;;;;;;;;3.86;93.45;99775.31;4895839;29;19930;-82
2022/02/19 14:35:34;;;;;;;;;;;;;;;3.73;91.50;99761.53;4897712;29;19935;-84
2022/02/19 14:37:59;;;;;;;;;;;;;;;3.51;90.13;99766.22;4890161;29;19970;-83
2022/02/19 14:40:25;;;;;;;;;;;;;;;3.29;89.04;99774.41;4895186;29;19954;-83
2022/02/19 14:42:50;;;;;;;;;;;;;;;3.18;88.32;99761.44;4897454;29;19927;-81
2022/02/19 14:45:16;;;;;;;;;;;;;;;3.08;87.70;99757.22;4897935;29;20373;-81
2022/02/19 14:47:41;;;;;;;;;;;;;;;2.99;86.62;99757.34;4913866;29;19927;-81
2022/02/19 14:50:08;;;;;;;;;;;;;;;2.75;85.57;99758.50;4894742;29;19927;-88
2022/02/19 14:52:33;;;;;;;;;;;;;;;2.58;84.94;99767.38;4907528;29;19922;-81
2022/02/19 14:54:59;;;;;;;;;;;;;;;2.60;84.27;99760.41;4912847;29;19923;-82
2022/02/19 14:57:25;;;;;;;;;;;;;;;2.42;83.73;99761.44;4911982;29;19923;-81
2022/02/19 14:59:50;;;;;;;;;;;;;;;2.32;83.22;99755.44;4895406;29;20378;-82
2022/02/19 15:02:15;;;;;;;;;;;;;;;2.10;82.91;99751.28;4895102;29;19923;-85
2022/02/19 15:04:41;;;;;;;;;;;;;;;2.04;82.89;99743.50;4914709;29;19923;-80
2022/02/19 15:07:06;;;;;;;;;;;;;;;2.60;86.76;99742.09;4907236;29;20040;-81
2022/02/19 15:09:31;;;;;;;;;;;;;;;2.88;89.26;99750.47;4898726;29;19938;-81
2022/02/19 15:11:56;;;;;;;;;;;;;;;3.08;91.37;99741.50;4908808;29;20965;-81
2022/02/19 15:14:22;;;;;;;;;;;;;;;3.17;93.14;99740.50;4895460;29;20222;-80
2022/02/19 15:16:49;;;;;;;;;;;;;;;3.27;94.33;99749.97;4898049;29;19923;-84
2022/02/19 15:19:15;;;;;;;;;;;;;;;3.31;94.00;99740.34;4895506;29;19923;-82
2022/02/19 15:21:40;;;;;;;;;;;;;;;3.36;94.27;99736.75;4892024;29;19927;-82
2022/02/19 15:24:06;;;;;;;;;;;;;;;3.39;94.83;99741.94;4892005;29;19946;-82
2022/02/19 15:26:31;;;;;;;;;;;;;;;3.40;95.20;99733.22;4898213;29;20002;-82
2022/02/19 15:28:56;;;;;;;;;;;;;;;3.36;94.36;99731.50;4908557;29;19923;-81
2022/02/19 15:31:23;;;;;;;;;;;;;;;3.44;94.22;99734.88;4910663;29;20025;-82
2022/02/19 15:33:48;;;;;;;;;;;;;;;3.52;94.08;99726.91;4894437;29;20448;-85
2022/02/19 15:36:13;;;;;;;;;;;;;;;3.52;93.31;99726.06;4910686;29;20035;-85
2022/02/19 15:38:39;;;;;;;;;;;;;;;3.56;92.34;99707.66;4908739;29;19927;-81
2022/02/19 15:41:04;;;;;;;;;;;;;;;3.61;91.41;99712.81;4917045;29;20330;-81
2022/02/19 15:43:29;;;;;;;;;;;;;;;3.60;90.31;99714.56;4911856;29;19937;-84
2022/02/19 15:45:55;;;;;;;;;;;;;;;3.62;89.07;99711.91;4912280;29;19923;-85
2022/02/19 15:48:20;;;;;;;;;;;;;;;3.56;87.81;99715.50;4896318;29;19943;-83
2022/02/19 15:50:46;;;;;;;;;;;;;;;3.49;87.32;99715.63;4913301;29;19927;-84
2022/02/19 15:53:11;;;;;;;;;;;;;;;3.48;86.76;99708.63;4913998;29;19927;-83
2022/02/19 15:55:36;;;;;;;;;;;;;;;3.52;86.07;99711.19;4913189;29;19927;-84
2022/02/19 15:58:03;;;;;;;;;;;;;;;3.50;85.52;99704.25;4897787;29;20004;-84
2022/02/19 16:00:29;;;;;;;;;;;;;;;3.53;85.44;99699.84;4915122;29;20002;-80
2022/02/19 16:02:54;;;;;;;;;;;;;;;3.55;84.81;99702.44;4913266;29;20013;-82
2022/02/19 16:05:19;;;;;;;;;;;;;;;3.64;84.35;99689.19;4893185;29;20473;-82
2022/02/19 16:07:51;;;;;;;;;;;;;;;3.67;84.25;99686.53;4913927;29;20025;-85
2022/02/19 16:10:17;;;;;;;;;;;;;;;3.60;83.61;99674.38;4913445;29;19930;-85
2022/02/19 16:12:42;;;;;;;;;;;;;;;3.55;83.50;99681.47;4895887;29;19931;-84
2022/02/19 16:15:07;;;;;;;;;;;;;;;3.48;83.46;99667.59;4918260;29;19931;-87
2022/02/19 16:17:33;;;;;;;;;;;;;;;3.47;83.23;99665.88;4914508;29;19927;-85
2022/02/19 16:19:59;;;;;;;;;;;;;;;3.51;83.21;99661.44;4913858;29;19935;-83
2022/02/19 16:22:24;;;;;;;;;;;;;;;3.51;82.95;99666.69;4912741;29;19933;-85
2022/02/19 16:24:49;;;;;;;;;;;;;;;3.58;82.64;99663.09;4906256;29;19923;-82
2022/02/19 16:27:15;;;;;;;;;;;;;;;3.49;82.43;99652.75;4913707;29;20009;-81
2022/02/19 16:29:40;;;;;;;;;;;;;;;3.41;82.61;99655.47;4909826;29;19926;-83
2022/02/19 16:32:08;;;;;;;;;;;;;;;3.59;82.40;99660.44;4915446;29;20010;-81
2022/02/19 16:34:33;;;;;;;;;;;;;;;3.64;81.96;99662.97;4914673;29;19926;-85
2022/02/19 16:36:59;;;;;;;;;;;;;;;3.65;81.47;99664.69;4909238;29;19927;-85
2022/02/19 16:39:24;;;;;;;;;;;;;;;3.49;82.00;99663.22;4900668;29;19931;-84
2022/02/19 16:41:51;;;;;;;;;;;;;;;3.64;82.07;99674.31;4916017;29;20207;-82
2022/02/19 16:44:16;;;;;;;;;;;;;;;3.61;81.45;99673.50;4915517;29;20553;-84
2022/02/19 16:46:42;;;;;;;;;;;;;;;3.55;81.41;99668.38;4917896;29;19929;-84
2022/02/19 16:49:07;;;;;;;;;;;;;;;3.45;81.85;99676.38;4919665;29;19978;-83
2022/02/19 16:51:33;;;;;;;;;;;;;;;3.58;81.83;99684.03;4915071;29;19923;-86
2022/02/19 16:53:58;;;;;;;;;;;;;;;3.67;81.40;99670.78;4917473;29;19978;-84
2022/02/19 16:56:25;;;;;;;;;;;;;;;3.66;81.34;99671.69;4914551;29;20027;-82
2022/02/19 16:58:51;;;;;;;;;;;;;;;3.69;81.11;99668.16;4915455;29;20005;-81
2022/02/19 17:01:17;;;;;;;;;;;;;;;3.55;81.31;99676.22;4912067;29;20418;-83
2022/02/19 17:03:42;;;;;;;;;;;;;;;3.49;81.70;99668.47;4915159;29;19930;-82
2022/02/19 17:06:07;;;;;;;;;;;;;;;3.57;81.66;99669.19;4915198;29;20116;-84
2022/02/19 17:08:34;;;;;;;;;;;;;;;3.52;81.50;99664.03;4915059;29;19922;-86
2022/02/19 17:11:02;;;;;;;;;;;;;;;3.49;81.52;99666.69;4915483;29;19923;-81
2022/02/19 17:13:28;;;;;;;;;;;;;;;3.43;81.22;99670.28;4915717;29;19927;-85
2022/02/19 17:15:54;;;;;;;;;;;;;;;3.44;81.30;99669.38;4908186;29;19929;-81
2022/02/19 17:18:19;;;;;;;;;;;;;;;3.56;81.06;99675.34;4901789;29;20507;-87
2022/02/19 17:20:47;;;;;;;;;;;;;;;3.65;80.68;99667.31;4916660;29;20202;-88
2022/02/19 17:23:12;;;;;;;;;;;;;;;3.54;80.62;99671.88;4898672;29;19927;-85
2022/02/19 17:25:46;;;;;;;;;;;;;;;3.51;80.99;99666.69;4915878;29;20410;-86
2022/02/19 17:28:11;;;;;;;;;;;;;;;3.43;80.93;99665.06;4906339;29;20410;-80
2022/02/19 17:30:39;;;;;;;;;;;;;;;3.41;80.60;99660.72;4915740;29;19963;-81
2022/02/19 17:33:04;;;;;;;;;;;;;;;3.45;80.25;99665.88;4915655;29;19923;-83
2022/02/19 17:35:29;;;;;;;;;;;;;;;3.51;80.08;99669.28;4908758;29;19974;-88
2022/02/19 17:37:55;;;;;;;;;;;;;;;3.39;79.53;99663.34;4915256;29;20435;-85
2022/02/19 17:40:32;;;;;;;;;;;;;;;3.44;79.86;99661.53;4912203;29;19982;-88
2022/02/19 17:42:57;;;;;;;;;;;;;;;3.41;79.59;99650.25;4899268;29;20503;-84
2022/02/19 17:45:22;;;;;;;;;;;;;;;3.40;79.54;99651.16;4918292;29;19923;-87
2022/02/19 17:47:48;;;;;;;;;;;;;;;3.52;79.66;99642.22;4901129;29;19930;-81
2022/02/19 17:50:14;;;;;;;;;;;;;;;3.40;79.50;99653.78;4914502;29;19930;-81
2022/02/19 17:52:40;;;;;;;;;;;;;;;3.41;79.40;99651.09;4917802;29;20350;-88
2022/02/19 17:55:05;;;;;;;;;;;;;;;3.38;79.42;99656.41;4917847;29;20002;-80
2022/02/19 17:57:31;;;;;;;;;;;;;;;3.46;79.35;99648.41;4915131;29;19933;-90
2022/02/19 17:59:56;;;;;;;;;;;;;;;3.48;79.05;99648.38;4895464;29;20109;-87
2022/02/19 18:02:21;;;;;;;;;;;;;;;3.43;78.63;99641.47;4898109;29;19935;-82
2022/02/19 18:04:47;;;;;;;;;;;;;;;3.40;78.82;99649.38;4912195;29;20388;-89
2022/02/19 18:07:13;;;;;;;;;;;;;;;3.43;79.60;99649.34;4904604;29;19930;-82
2022/02/19 18:09:38;;;;;;;;;;;;;;;3.38;79.12;99645.94;4896044;29;20338;-82
2022/02/19 18:12:04;;;;;;;;;;;;;;;3.39;78.68;99639.78;4911833;29;19927;-87
2022/02/19 18:14:30;;;;;;;;;;;;;;;3.39;78.23;99641.56;4913775;29;19977;-84
2022/02/19 18:16:55;;;;;;;;;;;;;;;3.35;78.74;99635.50;4910994;29;20518;-83
2022/02/19 18:19:20;;;;;;;;;;;;;;;3.40;78.47;99640.69;4912485;29;19930;-84
2022/02/19 18:21:45;;;;;;;;;;;;;;;3.37;78.28;99631.09;4898651;29;19973;-80
2022/02/19 18:24:11;;;;;;;;;;;;;;;3.41;77.52;99624.91;4912497;29;19931;-81
2022/02/19 18:26:37;;;;;;;;;;;;;;;3.32;77.23;99622.47;4915881;29;20091;-82
2022/02/19 18:29:03;;;;;;;;;;;;;;;3.34;76.93;99617.19;4894094;29;20186;-83
2022/02/19 18:31:28;;;;;;;;;;;;;;;3.31;76.74;99618.09;4905864;29;20018;-80
2022/02/19 18:33:54;;;;;;;;;;;;;;;3.34;77.09;99615.44;4893361;29;20398;-83
2022/02/19 18:36:19;;;;;;;;;;;;;;;3.30;77.20;99611.13;4893788;29;20116;-84
2022/02/19 18:38:44;;;;;;;;;;;;;;;3.31;77.04;99618.09;4910498;29;19941;-80
2022/02/19 18:41:09;;;;;;;;;;;;;;;3.29;76.79;99604.16;4907000;29;19931;-83